Flight Track Log - Related Links

Times and Time Zones

All times are in EDT time to prevent confusion due to time zone crossing. See the UAL1137 flight status page for this flight to view local times or setup timezone preferences in your user account.

Time Position Orientation Groundspeed Altitude Reporting Facility
EDT Latitude Longitude Course Direction KTS MPH feet Rate Location/Type
Wed 02:29:29 PM 29.9564 -95.3384 143° Southeast 174 200 800  Level FlightAware ADS-B
Wed 02:29:37 PM 29.9524 -95.3349 134° Southeast 172 198 1,100 2,400 Climbing FlightAware ADS-B
Wed 02:29:44 PM 29.9480 -95.3296 131° Southeast 175 201 1,400 1,765 Climbing FlightAware ADS-B
Wed 02:29:54 PM 29.9424 -95.3222 131° Southeast 194 223 1,600 1,286 Climbing FlightAware ADS-B
Wed 02:29:58 PM 29.9397 -95.3186 130° Southeast 203 234 1,700 1,333 Climbing FlightAware ADS-B
Wed 02:30:12 PM 29.9311 -95.3069 131° Southeast 217 250 2,000 1,579 Climbing FlightAware ADS-B
Wed 02:30:17 PM 29.9282 -95.3030 130° Southeast 220 253 2,200 3,333 Climbing FlightAware ADS-B
Wed 02:30:21 PM 29.9243 -95.2976 129° Southeast 222 255 2,500 3,333 Climbing FlightAware ADS-B
Wed 02:30:26 PM 29.9217 -95.2939 129° Southeast 224 258 2,700 2,857 Climbing FlightAware ADS-B
Wed 02:30:42 PM 29.9117 -95.2797 130° Southeast 227 261 3,500 2,400 Climbing FlightAware ADS-B
Wed 02:30:56 PM 29.9006 -95.2643 129° Southeast 244 281 3,900 1,034 Climbing FlightAware ADS-B
Wed 02:31:11 PM 29.8899 -95.2488 129° Southeast 257 296 4,000 200 Climbing FlightAware ADS-B
Wed 02:31:26 PM 29.8784 -95.2325 128° Southeast 262 302 4,000 387 Level FlightAware ADS-B
Wed 02:31:42 PM 29.8664 -95.2150 129° Southeast 268 308 4,200 1,400 Climbing FlightAware ADS-B
Wed 02:31:56 PM 29.8557 -95.1995 129° Southeast 271 312 4,700 2,690 Climbing FlightAware ADS-B
Wed 02:32:11 PM 29.8434 -95.1823 130° Southeast 273 314 5,500 3,400 Climbing FlightAware ADS-B
Wed 02:32:26 PM 29.8312 -95.1657 131° Southeast 270 311 6,400 3,130 Climbing FlightAware ADS-B
Wed 02:32:34 PM 29.8250 -95.1574 131° Southeast 272 313 6,700 2,640 Climbing FlightAware ADS-B
Wed 02:32:51 PM 29.8108 -95.1386 131° Southeast 276 318 7,500 2,625 Climbing FlightAware ADS-B
Wed 02:33:06 PM 29.7975 -95.1211 132° Southeast 285 328 8,100 2,516 Climbing FlightAware ADS-B
Wed 02:33:22 PM 29.7836 -95.1034 133° Southeast 290 334 8,800 2,400 Climbing FlightAware ADS-B
Wed 02:33:31 PM 29.7746 -95.0923 131° Southeast 295 339 9,100 2,308 Climbing FlightAware ADS-B
Wed 02:33:35 PM 29.7714 -95.0880 124° Southeast 297 342 9,300 2,250 Climbing FlightAware ADS-B
Wed 02:33:39 PM 29.7682 -95.0825 116° Southeast 298 343 9,400 2,250 Climbing FlightAware ADS-B
Wed 02:33:43 PM 29.7661 -95.0776 111° Southeast 298 343 9,600 2,571 Climbing FlightAware ADS-B
Wed 02:33:46 PM 29.7644 -95.0724 103° East 298 343 9,700 2,571 Climbing FlightAware ADS-B
Wed 02:33:50 PM 29.7633 -95.0670 94° East 298 343 9,900 3,000 Climbing FlightAware ADS-B
Wed 02:33:56 PM 29.7627 -95.0565 85° East 297 342 10,200 3,000 Climbing FlightAware ADS-B
Wed 02:34:00 PM 29.7631 -95.0511 79° East 298 343 10,400 1,600 Climbing FlightAware ADS-B
Wed 02:34:11 PM 29.7662 -95.0332 77° East 308 354 10,600 1,543 Climbing FlightAware ADS-B
Wed 02:34:35 PM 29.7742 -94.9940 80° East 326 375 11,300 2,222 Climbing FlightAware ADS-B
Wed 02:35:05 PM 29.7824 -94.9418 81° East 333 383 12,600 2,500 Climbing FlightAware ADS-B
Wed 02:35:35 PM 29.7895 -94.8879 82° East 343 395 13,800 2,400 Climbing FlightAware ADS-B
Wed 02:36:05 PM 29.7965 -94.8323 82° East 351 404 15,000 2,262 Climbing FlightAware ADS-B
Wed 02:36:36 PM 29.8038 -94.7749 82° East 364 419 16,100 2,129 Climbing FlightAware ADS-B
Wed 02:37:07 PM 29.8115 -94.7149 81° East 374 430 17,200 2,262 Climbing FlightAware ADS-B
Wed 02:37:37 PM 29.8193 -94.6555 81° East 379 436 18,400 2,066 Climbing FlightAware ADS-B
Wed 02:38:08 PM 29.8275 -94.5928 82° East 393 452 19,300 1,672 Climbing FlightAware ADS-B
Wed 02:38:38 PM 29.8359 -94.5276 82° East 407 468 20,100 1,770 Climbing FlightAware ADS-B
Wed 02:39:09 PM 29.8443 -94.4615 81° East 415 478 21,100 2,066 Climbing FlightAware ADS-B
Wed 02:39:39 PM 29.8529 -94.3953 81° East 419 482 22,200 2,077 Climbing FlightAware ADS-B
Wed 02:40:01 PM 29.8591 -94.3474 85° East 421 484 22,900 1,371 Climbing FlightAware ADS-B
Wed 02:40:14 PM 29.8615 -94.3169 89° East 424 488 23,000 240 Climbing FlightAware ADS-B
Wed 02:40:26 PM 29.8617 -94.2913 92° East 426 490 23,000  Level FlightAware ADS-B
Wed 02:40:56 PM 29.8596 -94.2222 92° East 426 490 23,000  Level FlightAware ADS-B
Wed 02:41:27 PM 29.8573 -94.1528 88° East 425 489 23,000 588 Level FlightAware ADS-B
Wed 02:41:47 PM 29.8587 -94.1081 83° East 425 489 23,500 1,500 Climbing FlightAware ADS-B
Wed 02:42:19 PM 29.8659 -94.0353 84° East 432 497 24,300 1,548 Climbing FlightAware ADS-B
Wed 02:42:49 PM 29.8726 -93.9646 84° East 437 503 25,100 1,560 Climbing FlightAware ADS-B
Wed 02:43:59 PM 29.8872 -93.8036 84° East 441 507 26,900 1,500 Climbing FlightAware ADS-B
Wed 02:44:33 PM 29.8948 -93.7195 84° East 452 520 27,700 1,500 Climbing FlightAware ADS-B
Wed 02:45:11 PM 29.9029 -93.6291 84° East 453 521 28,700 1,816 Climbing FlightAware ADS-B
Wed 02:45:49 PM 29.9110 -93.5391 84° East 447 514 30,000 1,913 Climbing FlightAware ADS-B
Wed 02:46:20 PM 29.9175 -93.4674 84° East 441 507 30,900 1,644 Climbing FlightAware ADS-B
Wed 02:47:02 PM 29.9262 -93.3695 84° East 439 505 32,000 1,417 Climbing FlightAware ADS-B
Wed 02:47:32 PM 29.9324 -93.2992 84° East 438 504 32,600 984 Climbing FlightAware ADS-B
Wed 02:48:03 PM 29.9386 -93.2279 84° East 440 506 33,000 375 Climbing FlightAware ADS-B
Wed 02:48:36 PM 29.9452 -93.1512 84° East 442 509 33,000  Level FlightAware ADS-B
Wed 02:49:07 PM 29.9514 -93.0778 84° East 442 509 33,000  Level FlightAware ADS-B
Wed 02:49:50 PM 29.9601 -92.9773 84° East 442 509 33,000  Level FlightAware ADS-B
Wed 02:50:32 PM 29.9684 -92.8793 84° East 441 507 33,000  Level FlightAware ADS-B
Wed 02:51:37 PM 29.9810 -92.7279 84° East 439 505 33,000  Level FlightAware ADS-B
Wed 02:52:33 PM 29.9917 -92.5992 85° East 438 504 33,000  Level FlightAware ADS-B
Wed 02:52:48 PM 29.9925 -92.5892 85° East 440 506 33,000 -624 Level Houston Center
Wed 02:54:38 PM 30.0151 -92.3108 85° East 434 499 31,700 -1,280 Descending FlightAware ADS-B
Wed 02:55:32 PM 30.0248 -92.1867 85° East 433 498 29,500 -2,302 Descending FlightAware ADS-B
Wed 02:56:04 PM 30.0305 -92.1134 86° East 424 488 28,400 -1,840 Descending FlightAware ADS-B
Wed 02:56:47 PM 30.0347 -92.0400 86° East 430 495 27,200 -1,846 Descending Houston Center
Wed 02:57:48 PM 30.0433 -91.9106 84° East 419 482 25,200 -2,095 Descending Houston Center
Wed 02:59:36 PM 30.0654 -91.6585 84° East 391 450 21,300 -2,033 Descending FlightAware ADS-B
Wed 03:00:48 PM 30.0769 -91.5194 84° East 389 448 19,100 -1,818 Descending Houston Center
Wed 03:01:48 PM 30.0872 -91.3994 85° East 384 442 17,300 -1,850 Descending Houston Center
Wed 03:02:48 PM 30.0953 -91.2817 88° East 384 442 15,400 -1,939 Descending Houston Center
Wed 03:03:27 PM 30.0972 -91.2025 85° East 370 426 14,100 -1,915 Descending Houston Center
Wed 03:04:22 PM 30.1050 -91.0969 86° East 361 415 12,400 -1,552 Descending Houston Center
Wed 03:05:23 PM 30.1108 -90.9889 109° East 343 395 11,100 -1,180 Descending Houston Center
Wed 03:06:24 PM 30.0833 -90.8953 107° East 301 346 10,000 -1,304 Descending Houston Center
Wed 03:07:18 PM 30.0619 -90.8164 104° East 289 333 8,600 -1,500 Descending Houston Center
Wed 03:07:48 PM 30.0533 -90.7756 114° Southeast 290 334 7,900 -1,343 Descending Houston Center
Wed 03:08:25 PM 30.0319 -90.7206 107° East 291 335 7,100 -1,304 Descending Houston Center
Wed 03:09:20 PM 30.0106 -90.6417 109° East 287 330 5,900 -1,086 Descending Houston Center
Wed 03:10:21 PM 29.9847 -90.5556 109° East 282 325 5,000 -443 Descending Houston Center
Wed 03:11:22 PM 29.9592 -90.4719 110° East 274 315 5,000  Level Houston Center
Wed 03:12:23 PM 29.9333 -90.3883 110° East 265 305 5,000 -492 Level Houston Center
Wed 03:13:24 PM 29.9094 -90.3119 107° East 258 297 4,000 -744 Descending Houston Center
Wed 03:14:24 PM 29.8900 -90.2403 109° East 234 269 3,500 -545 Descending Houston Center
Wed 03:15:25 PM 29.8706 -90.1736 109° East 229 264 2,900 -590 Descending Houston Center

Login

Don't have an account? Register now (free) for customized features, flight alerts, and more!